Time,TemperatureF,DewpointF,PressureIn,WindDirection,WindDirectionDegrees,WindSpeedMPH,WindSpeedGustMPH,Humidity,HourlyPrecipIn,Conditions,Clouds,dailyrainin,SoftwareType,DateUTC
2013-08-09 00:12:00,54.2,53.0,29.95,NNW,336,0.0,-999.0,96,-99.99,,,0.00,weatherlink.com 1.10,2013-08-09 07:12:00,
2013-08-09 00:27:00,54.0,53.0,29.95,NNW,336,0.0,-999.0,96,-99.99,,,0.00,weatherlink.com 1.10,2013-08-09 07:27:00,
2013-08-09 00:42:00,53.8,53.0,29.95,NNW,336,0.0,-999.0,97,-99.99,,,0.00,weatherlink.com 1.10,2013-08-09 07:42:00,
2013-08-09 00:58:00,53.7,53.0,29.95,NNW,336,0.0,-999.0,97,-99.99,,,0.00,weatherlink.com 1.10,2013-08-09 07:58:00,
2013-08-09 01:13:00,53.6,53.0,29.95,NNW,336,0.0,-999.0,97,-99.99,,,0.00,weatherlink.com 1.10,2013-08-09 08:13:00,
2013-08-09 01:28:00,53.7,53.0,29.95,NNW,336,0.0,-999.0,97,-99.99,,,0.00,weatherlink.com 1.10,2013-08-09 08:28:00,
2013-08-09 01:43:00,53.7,53.0,29.95,NNW,336,0.0,-999.0,97,-99.99,,,0.00,weatherlink.com 1.10,2013-08-09 08:43:00,
2013-08-09 01:57:00,53.9,53.0,29.95,NNW,336,0.0,-999.0,97,-99.99,,,0.00,weatherlink.com 1.10,2013-08-09 08:57:00,
2013-08-09 02:12:00,53.6,53.0,29.95,NNW,336,0.0,-999.0,97,-99.99,,,0.00,weatherlink.com 1.10,2013-08-09 09:12:00,
2013-08-09 02:27:00,53.3,53.0,29.95,NNW,336,0.0,-999.0,97,-99.99,,,0.00,weatherlink.com 1.10,2013-08-09 09:27:00,
2013-08-09 02:42:00,53.2,52.0,29.95,NNW,336,0.0,-999.0,97,-99.99,,,0.00,weatherlink.com 1.10,2013-08-09 09:42:00,
2013-08-09 02:58:00,53.3,53.0,29.95,NNW,336,0.0,-999.0,98,-99.99,,,0.00,weatherlink.com 1.10,2013-08-09 09:58:00,
2013-08-09 03:13:00,53.5,53.0,29.95,NNW,336,0.0,-999.0,98,-99.99,,,0.00,weatherlink.com 1.10,2013-08-09 10:13:00,
2013-08-09 03:28:00,53.6,53.0,29.95,NNW,336,0.0,-999.0,98,-99.99,,,0.00,weatherlink.com 1.10,2013-08-09 10:28:00,
2013-08-09 03:43:00,53.7,53.0,29.94,NNW,336,0.0,-999.0,98,-99.99,,,0.00,weatherlink.com 1.10,2013-08-09 10:43:00,
2013-08-09 03:58:00,53.9,53.0,29.94,NNW,336,0.0,-999.0,98,-99.99,,,0.00,weatherlink.com 1.10,2013-08-09 10:58:00,
2013-08-09 04:13:00,53.9,53.0,29.94,NNW,336,0.0,-999.0,98,-99.99,,,0.00,weatherlink.com 1.10,2013-08-09 11:13:00,
2013-08-09 04:28:00,54.0,54.0,29.93,NNW,336,0.0,-999.0,98,-99.99,,,0.00,weatherlink.com 1.10,2013-08-09 11:28:00,
2013-08-09 04:43:00,53.6,53.0,29.93,NNW,336,0.0,-999.0,98,-99.99,,,0.00,weatherlink.com 1.10,2013-08-09 11:43:00,
2013-08-09 04:58:00,53.5,53.0,29.93,NNW,336,0.0,-999.0,98,-99.99,,,0.01,weatherlink.com 1.10,2013-08-09 11:58:00,
2013-08-09 05:13:00,53.7,53.0,29.92,NNW,336,0.0,-999.0,98,-99.99,,,0.01,weatherlink.com 1.10,2013-08-09 12:13:00,
2013-08-09 05:28:00,53.9,53.0,29.92,NNW,336,0.0,-999.0,98,-99.99,,,0.01,weatherlink.com 1.10,2013-08-09 12:28:00,
2013-08-09 05:43:00,53.7,53.0,29.93,NNW,336,0.0,-999.0,98,-99.99,,,0.01,weatherlink.com 1.10,2013-08-09 12:43:00,
2013-08-09 05:58:00,53.4,53.0,29.93,NNW,336,0.0,-999.0,98,-99.99,,,0.01,weatherlink.com 1.10,2013-08-09 12:58:00,
2013-08-09 06:13:00,53.3,53.0,29.93,NNW,336,0.0,-999.0,98,-99.99,,,0.01,weatherlink.com 1.10,2013-08-09 13:13:00,
2013-08-09 06:28:00,53.6,53.0,29.93,NNW,336,0.0,-999.0,98,-99.99,,,0.01,weatherlink.com 1.10,2013-08-09 13:28:00,
2013-08-09 06:43:00,53.9,53.0,29.93,NNW,336,0.0,-999.0,98,-99.99,,,0.01,weatherlink.com 1.10,2013-08-09 13:43:00,
2013-08-09 06:57:00,53.7,53.0,29.93,NNW,336,0.0,-999.0,98,-99.99,,,0.01,weatherlink.com 1.10,2013-08-09 13:57:00,
2013-08-09 07:12:00,53.3,53.0,29.93,NNW,336,0.0,-999.0,98,-99.99,,,0.01,weatherlink.com 1.10,2013-08-09 14:12:00,
2013-08-09 07:27:00,53.8,54.0,29.93,NNW,336,0.0,-999.0,99,-99.99,,,0.01,weatherlink.com 1.10,2013-08-09 14:27:00,
2013-08-09 07:42:00,54.4,54.0,29.93,NNW,336,0.0,-999.0,99,-99.99,,,0.01,weatherlink.com 1.10,2013-08-09 14:42:00,
2013-08-09 07:58:00,54.5,54.0,29.93,NNW,336,0.0,-999.0,99,-99.99,,,0.01,weatherlink.com 1.10,2013-08-09 14:58:00,
2013-08-09 08:13:00,54.5,54.0,29.93,NNW,336,0.0,-999.0,99,-99.99,,,0.01,weatherlink.com 1.10,2013-08-09 15:13:00,
2013-08-09 08:28:00,54.5,54.0,29.93,ENE,74,0.0,-999.0,98,-99.99,,,0.01,weatherlink.com 1.10,2013-08-09 15:28:00,
2013-08-09 08:43:00,54.0,54.0,29.93,ENE,74,0.0,-999.0,98,-99.99,,,0.01,weatherlink.com 1.10,2013-08-09 15:43:00,
2013-08-09 08:57:00,53.9,53.0,29.93,ENE,74,0.0,-999.0,98,-99.99,,,0.01,weatherlink.com 1.10,2013-08-09 15:57:00,
2013-08-09 09:12:00,54.7,55.0,29.93,ENE,74,0.0,-999.0,99,-99.99,,,0.01,weatherlink.com 1.10,2013-08-09 16:12:00,
2013-08-09 09:27:00,55.0,55.0,29.93,ENE,74,0.0,-999.0,99,-99.99,,,0.01,weatherlink.com 1.10,2013-08-09 16:27:00,
2013-08-09 09:42:00,54.8,55.0,29.92,ENE,74,0.0,-999.0,99,-99.99,,,0.01,weatherlink.com 1.10,2013-08-09 16:42:00,
2013-08-09 10:00:00,54.9,55.0,29.92,ENE,74,0.0,-999.0,99,-99.99,,,0.01,weatherlink.com 1.10,2013-08-09 17:00:00,
2013-08-09 10:13:00,54.8,54.0,29.92,ESE,120,0.0,-999.0,98,-99.99,,,0.01,weatherlink.com 1.10,2013-08-09 17:13:00,
2013-08-09 10:28:00,55.1,55.0,29.92,ESE,109,0.0,-999.0,99,-99.99,,,0.01,weatherlink.com 1.10,2013-08-09 17:28:00,
2013-08-09 10:43:00,55.1,55.0,29.91,NE,45,6.0,-999.0,98,-99.99,,,0.01,weatherlink.com 1.10,2013-08-09 17:43:00,
2013-08-09 10:57:00,54.9,54.0,29.91,East,98,3.0,-999.0,98,-99.99,,,0.01,weatherlink.com 1.10,2013-08-09 17:57:00,
2013-08-09 11:12:00,54.1,54.0,29.92,SSE,157,6.0,-999.0,98,-99.99,,,0.01,weatherlink.com 1.10,2013-08-09 18:12:00,
2013-08-09 11:28:00,54.4,54.0,29.91,SSE,148,3.0,-999.0,98,-99.99,,,0.01,weatherlink.com 1.10,2013-08-09 18:28:00,
2013-08-09 11:43:00,53.6,53.0,29.91,SSE,165,4.0,-999.0,98,-99.99,,,0.01,weatherlink.com 1.10,2013-08-09 18:43:00,
2013-08-09 11:58:00,53.6,53.0,29.91,SE,138,4.0,-999.0,98,-99.99,,,0.01,weatherlink.com 1.10,2013-08-09 18:58:00,
2013-08-09 12:13:00,55.3,55.0,29.90,SE,134,3.0,-999.0,98,-99.99,,,0.01,weatherlink.com 1.10,2013-08-09 19:13:00,
2013-08-09 12:28:00,58.2,57.0,29.90,SSE,159,1.0,-999.0,96,-99.99,,,0.01,weatherlink.com 1.10,2013-08-09 19:28:00,
2013-08-09 12:43:00,59.1,57.0,29.90,South,175,3.0,-999.0,92,-99.99,,,0.01,weatherlink.com 1.10,2013-08-09 19:43:00,
2013-08-09 12:58:00,59.3,56.0,29.89,South,175,4.0,-999.0,88,-99.99,,,0.01,weatherlink.com 1.10,2013-08-09 19:58:00,
2013-08-09 13:13:00,56.6,54.0,29.90,SSE,149,5.0,-999.0,92,-99.99,,,0.01,weatherlink.com 1.10,2013-08-09 20:13:00,
2013-08-09 13:28:00,56.6,54.0,29.89,SSE,159,7.0,-999.0,92,-99.99,,,0.01,weatherlink.com 1.10,2013-08-09 20:28:00,
2013-08-09 13:43:00,56.2,54.0,29.89,SE,138,5.0,-999.0,93,-99.99,,,0.01,weatherlink.com 1.10,2013-08-09 20:43:00,
2013-08-09 13:58:00,56.8,55.0,29.89,SSE,151,6.0,-999.0,93,-99.99,,,0.01,weatherlink.com 1.10,2013-08-09 20:58:00,
2013-08-09 14:13:00,57.2,55.0,29.89,SSE,166,5.0,-999.0,92,-99.99,,,0.01,weatherlink.com 1.10,2013-08-09 21:13:00,
2013-08-09 14:28:00,57.4,55.0,29.88,SSE,162,3.0,-999.0,92,-99.99,,,0.01,weatherlink.com 1.10,2013-08-09 21:28:00,
2013-08-09 14:43:00,58.7,56.0,29.88,SSE,154,2.0,-999.0,89,-99.99,,,0.01,weatherlink.com 1.10,2013-08-09 21:43:00,
2013-08-09 14:58:00,58.6,55.0,29.88,SE,142,4.0,-999.0,89,-99.99,,,0.01,weatherlink.com 1.10,2013-08-09 21:58:00,
2013-08-09 15:13:00,58.3,55.0,29.88,SSE,147,3.0,-999.0,88,-99.99,,,0.01,weatherlink.com 1.10,2013-08-09 22:13:00,
2013-08-09 15:28:00,58.3,55.0,29.88,SE,136,4.0,-999.0,88,-99.99,,,0.01,weatherlink.com 1.10,2013-08-09 22:28:00,
2013-08-09 15:43:00,58.7,55.0,29.88,SE,146,4.0,-999.0,88,-99.99,,,0.01,weatherlink.com 1.10,2013-08-09 22:43:00,
2013-08-09 15:59:00,57.8,55.0,29.88,SE,142,3.0,-999.0,89,-99.99,,,0.01,weatherlink.com 1.10,2013-08-09 22:59:00,
2013-08-09 16:14:00,57.7,54.0,29.87,South,169,3.0,-999.0,88,-99.99,,,0.01,weatherlink.com 1.10,2013-08-09 23:14:00,
2013-08-09 16:29:00,57.7,55.0,29.87,SE,138,5.0,-999.0,89,-99.99,,,0.01,weatherlink.com 1.10,2013-08-09 23:29:00,
2013-08-09 16:44:00,58.2,55.0,29.87,SE,127,3.0,-999.0,88,-99.99,,,0.01,weatherlink.com 1.10,2013-08-09 23:44:00,
2013-08-09 16:58:00,58.3,55.0,29.87,ESE,117,2.0,-999.0,88,-99.99,,,0.01,weatherlink.com 1.10,2013-08-09 23:58:00,
2013-08-09 17:13:00,58.0,55.0,29.86,SSE,167,7.0,-999.0,90,-99.99,,,0.01,weatherlink.com 1.10,2013-08-10 00:13:00,
2013-08-09 17:28:00,56.4,53.0,29.86,SE,138,5.0,-999.0,89,-99.99,,,0.01,weatherlink.com 1.10,2013-08-10 00:28:00,
2013-08-09 17:43:00,56.0,54.0,29.86,SE,136,0.0,-999.0,92,-99.99,,,0.01,weatherlink.com 1.10,2013-08-10 00:43:00,
2013-08-09 17:58:00,56.4,54.0,29.86,SE,136,0.0,-999.0,92,-99.99,,,0.01,weatherlink.com 1.10,2013-08-10 00:58:00,
2013-08-09 18:13:00,57.0,54.0,29.85,SE,136,0.0,-999.0,90,-99.99,,,0.01,weatherlink.com 1.10,2013-08-10 01:13:00,
2013-08-09 18:28:00,56.4,54.0,29.85,SE,136,0.0,-999.0,90,-99.99,,,0.01,weatherlink.com 1.10,2013-08-10 01:28:00,
2013-08-09 18:43:00,56.4,54.0,29.84,SE,136,1.0,-999.0,90,-99.99,,,0.01,weatherlink.com 1.10,2013-08-10 01:43:00,
2013-08-09 18:58:00,56.7,54.0,29.84,SE,136,0.0,-999.0,91,-99.99,,,0.01,weatherlink.com 1.10,2013-08-10 01:58:00,
2013-08-09 19:13:00,55.9,53.0,29.85,SE,141,0.0,-999.0,90,-99.99,,,0.01,weatherlink.com 1.10,2013-08-10 02:13:00,
2013-08-09 19:28:00,55.5,53.0,29.85,SE,141,0.0,-999.0,92,-99.99,,,0.01,weatherlink.com 1.10,2013-08-10 02:28:00,
2013-08-09 19:43:00,55.9,54.0,29.85,SE,141,0.0,-999.0,92,-99.99,,,0.01,weatherlink.com 1.10,2013-08-10 02:43:00,
2013-08-09 19:59:00,56.1,54.0,29.85,SE,141,0.0,-999.0,92,-99.99,,,0.01,weatherlink.com 1.10,2013-08-10 02:59:00,
2013-08-09 20:13:00,56.2,54.0,29.86,SE,141,0.0,-999.0,92,-99.99,,,0.01,weatherlink.com 1.10,2013-08-10 03:13:00,
2013-08-09 20:28:00,56.0,54.0,29.86,SE,142,0.0,-999.0,92,-99.99,,,0.01,weatherlink.com 1.10,2013-08-10 03:28:00,
2013-08-09 20:43:00,55.9,54.0,29.86,SE,142,0.0,-999.0,93,-99.99,,,0.01,weatherlink.com 1.10,2013-08-10 03:43:00,
2013-08-09 20:59:00,55.6,54.0,29.86,SE,142,0.0,-999.0,93,-99.99,,,0.01,weatherlink.com 1.10,2013-08-10 03:59:00,
2013-08-09 21:14:00,55.1,54.0,29.87,SE,142,0.0,-999.0,94,-99.99,,,0.01,weatherlink.com 1.10,2013-08-10 04:14:00,
2013-08-09 21:29:00,54.8,53.0,29.87,SE,142,0.0,-999.0,94,-99.99,,,0.01,weatherlink.com 1.10,2013-08-10 04:29:00,
2013-08-09 21:44:00,54.8,53.0,29.88,SE,142,0.0,-999.0,95,-99.99,,,0.01,weatherlink.com 1.10,2013-08-10 04:44:00,
2013-08-09 22:00:00,54.7,53.0,29.88,SE,142,0.0,-999.0,95,-99.99,,,0.01,weatherlink.com 1.10,2013-08-10 05:00:00,
2013-08-09 22:13:00,54.4,53.0,29.88,SE,142,0.0,-999.0,95,-99.99,,,0.01,weatherlink.com 1.10,2013-08-10 05:13:00,
2013-08-09 22:28:00,54.2,53.0,29.88,SE,142,0.0,-999.0,95,-99.99,,,0.01,weatherlink.com 1.10,2013-08-10 05:28:00,
2013-08-09 22:43:00,54.0,53.0,29.88,SE,142,0.0,-999.0,96,-99.99,,,0.01,weatherlink.com 1.10,2013-08-10 05:43:00,
2013-08-09 22:58:00,53.8,53.0,29.88,SE,142,0.0,-999.0,96,-99.99,,,0.01,weatherlink.com 1.10,2013-08-10 05:58:00,
2013-08-09 23:13:00,53.7,53.0,29.88,SE,142,1.0,-999.0,96,-99.99,,,0.01,weatherlink.com 1.10,2013-08-10 06:13:00,
2013-08-09 23:30:00,53.3,52.0,29.87,SE,142,0.0,-999.0,96,-99.99,,,0.01,weatherlink.com 1.10,2013-08-10 06:30:00,
2013-08-09 23:44:00,53.2,52.0,29.87,SE,144,0.0,-999.0,96,-99.99,,,0.01,weatherlink.com 1.10,2013-08-10 06:44:00,
2013-08-09 23:59:00,53.2,52.0,29.87,SE,144,0.0,-999.0,97,-99.99,,,0.01,weatherlink.com 1.10,2013-08-10 06:59:00,